Montebello, Canada
Current Conditions -  °F | °C
As of 11:00 AM on Saturday 22 Nov 2014 (Local Time) from CYND Reporting Station
Overcast Overcast  
Wind Chill: 23°   Ceiling: 12000
Heat Index: 34°   Visibility: 15mi
Dew Point: 23°   Wind: 17mph
Humidity: 65%   Direction: 220°SW
Pressure: 30.01"   Gusts: 28mph
Location:  45.65°N, 74.93°W
Report Text: CYND 221600Z 22015G24KT 15SM SCT030 OVC120 01/M05 A3001 RMK SC3AC5 SLP165
Loading
Personal Weather Stations






























Interactive Weather Map New forecast layout! Learn more

10-Day Weather Forecast

Advertisements
Track Severe Weather on mobile